• Join FlightAware (Why Join?)
  • Login
  • US Flag 
11:22AM EDT


 

Airport Tracker/Info


-or-


 

Live Flight TrackerFlight Track Log ✈ N125TV ✈ 16-Dec-2013 ✈ KJFX - KMOB

Flight Track Log - Related Links

Times and Time Zones

All times are in EST time to prevent confusion due to time zone crossing. See the N125TV flight status page for this flight to view local times or setup timezone preferences in your user account.

Time Position Orientation Groundspeed Altitude Reporting Facility
EST Latitude Longitude Course Direction KTS MPH feet Rate Location/Type
10:08PM 33.8283 -87.3772 200° South 143 165 3,800  Level Atlanta Center
10:08PM 33.8072 -87.3864 200° South 151 174 4,300 960 Climbing Atlanta Center
10:09PM 33.7653 -87.3947 189° South 151 174 5,300 900 Climbing Atlanta Center
10:10PM 33.7231 -87.4106 197° South 157 181 6,200 840 Climbing Atlanta Center
10:12PM 33.6789 -87.4214 192° South 162 186 7,200 840 Climbing Atlanta Center
10:13PM 33.6347 -87.4344 194° South 163 188 8,100 420 Climbing Atlanta Center
10:14PM 33.5758 -87.4497 192° South 186 214 8,100  Level Atlanta Center
10:15PM 33.5253 -87.4650 194° South 195 224 8,100  Level Atlanta Center
10:16PM 33.4706 -87.4803 193° South 190 219 8,100  Level Atlanta Center
10:16PM 33.4433 -87.4842 187° South 188 216 8,100  Level Atlanta Center
10:17PM 33.3972 -87.4972 193° South 195 224 8,100  Level Atlanta Center
10:18PM 33.3467 -87.5128 194° South 200 230 8,100  Level Atlanta Center
10:19PM 33.2939 -87.5281 194° South 200 230 8,100  Level Atlanta Center
10:20PM 33.2436 -87.5408 192° South 200 230 8,100  Level Atlanta Center
10:21PM 33.1931 -87.5564 194° South 200 230 8,100  Level Atlanta Center
10:22PM 33.1425 -87.5692 192° South 195 224 8,100  Level Atlanta Center
10:23PM 33.0897 -87.5892 198° South 195 224 8,100  Level Atlanta Center
10:24PM 33.0394 -87.5994 190° South 195 224 8,100  Level Atlanta Center
10:25PM 32.9931 -87.6100 191° South 195 224 8,100  Level Atlanta Center
10:26PM 32.9406 -87.6278 196° South 195 224 8,100  Level Atlanta Center
10:27PM 32.8922 -87.6406 193° South 189 217 8,100  Level Atlanta Center
10:28PM 32.8394 -87.6558 194° South 189 217 8,100  Level Atlanta Center
10:29PM 32.7911 -87.6711 195° South 184 212 8,100  Level Atlanta Center
10:30PM 32.7364 -87.6836 191° South 184 212 8,100  Level Atlanta Center
10:31PM 32.6881 -87.6989 195° South 184 212 8,100  Level Atlanta Center
10:32PM 32.6375 -87.7142 194° South 184 212 8,100  Level Atlanta Center
10:33PM 32.5892 -87.7244 190° South 184 212 8,100  Level Atlanta Center
10:34PM 32.5383 -87.7419 196° South 184 212 8,100  Level Atlanta Center
10:35PM 32.4858 -87.7544 191° South 184 212 8,100  Level Atlanta Center
10:36PM 32.4331 -87.7794 202° Southwest 190 219 8,100  Level Atlanta Center
10:37PM 32.3825 -87.7919 192° South 190 219 8,100  Level Atlanta Center
10:38PM 32.3319 -87.8047 192° South 190 219 8,100  Level Atlanta Center
10:39PM 32.2814 -87.8197 194° South 190 219 8,100  Level Atlanta Center
10:40PM 32.2311 -87.8322 192° South 190 219 8,100  Level Atlanta Center
10:41PM 32.1806 -87.8450 192° South 190 219 8,100  Level Atlanta Center
10:42PM 32.1300 -87.8622 196° South 190 219 8,100  Level Atlanta Center
10:43PM 32.0753 -87.8747 191° South 190 219 8,100  Level Atlanta Center
10:44PM 32.0247 -87.8872 192° South 190 219 8,100  Level Atlanta Center
10:45PM 31.9742 -87.9047 196° South 190 219 8,100  Level Atlanta Center
10:46PM 31.9217 -87.9147 189° South 190 219 8,100  Level Atlanta Center
10:47PM 31.8711 -87.9294 194° South 190 219 8,100  Level Atlanta Center
10:48PM 31.8206 -87.9419 192° South 190 219 8,100  Level Atlanta Center
10:51PM 31.6975 -87.9725 192° South 188 216 8,200  Climbing Houston Center
10:52PM 31.6464 -87.9861 193° South 188 216 8,200  Level Houston Center
10:53PM 31.5961 -88.0003 193° South 188 216 8,200  Level Houston Center
10:54PM 31.5467 -88.0142 193° South 184 212 8,200  Level Houston Center
10:55PM 31.4967 -88.0272 193° South 185 213 8,200  Level Houston Center
10:56PM 31.4458 -88.0414 193° South 186 214 8,200  Level Houston Center
10:57PM 31.3964 -88.0553 193° South 184 212 8,200  Level Houston Center
10:58PM 31.3372 -88.0706 192° South 182 209 8,200  Level Houston Center
10:59PM 31.2875 -88.0842 193° South 182 209 8,200 -360 Level Houston Center
11:00PM 31.2353 -88.0983 193° South 188 216 7,500 -780 Descending Houston Center
11:01PM 31.1803 -88.1147 194° South 198 228 6,700 -900 Descending Houston Center
11:02PM 31.1261 -88.1278 192° South 199 229 5,700 -780 Descending Houston Center
11:03PM 31.0725 -88.1428 193° South 197 227 5,200 -840 Descending Houston Center
11:04PM 31.0244 -88.1564 194° South 183 211 4,100 -1,140 Descending Houston Center
11:05PM 30.9803 -88.1872 211° Southwest 188 216 3,000 -900 Descending Houston Center
11:06PM 30.9469 -88.2278 226° Southwest 176 203 2,300 -480 Descending Houston Center
11:07PM 30.9147 -88.2669 226° Southwest 170 196 2,100 -120 Descending Houston Center
11:08PM 30.8836 -88.3056 227° Southwest 166 191 2,100  Level Houston Center
11:09PM 30.8564 -88.3389 226° Southwest 155 178 2,100  Level Houston Center
11:10PM 30.8328 -88.3681 227° Southwest 139 160 2,100  Level Houston Center
11:11PM 30.8056 -88.3508 151° Southeast 127 146 2,100  Level Houston Center
11:12PM 30.7850 -88.3214 129° Southeast 122 140 2,100 -300 Level Houston Center
11:13PM 30.7578 -88.2989 145° Southeast 120 138 1,600 -600 Descending Houston Center
11:14PM 30.7294 -88.2756 145° Southeast 122 140 900 -660 Descending Houston Center
11:15PM 30.7019 -88.2531 145° Southeast 123 142 300 -600 Descending Houston Center
11:17PM 30.6914 -88.2428 139° Southeast  Level Estimated
11:24PM 30.6914 -88.2428 139° Southeast  Level Estimated